REDHWK6 MMUN-KLAL
Flight info
| Callsign | REDHWK6 |
|---|---|
| Flight time | 1h 36m |
| Altitude | 40000 |
| Route | CUN3A CUN UT27 PISAD M215 KNOST DCT VPMNO DCT VPFSY DCT VPTCK DCT VPKER |
| Aircraft | BT7/M-SDGHITUY/LB1 |
Departure
| Time | 2026-04-26 20:31 |
|---|---|
| Airport | Cancún International Airport (MMUN) |
Arrival
| Time | 2026-04-26 22:07 |
|---|---|
| Airport | Lakeland Linder International Airport (KLAL) |
| Time | Latitude | Longitude | Altitude | Speed | Heading |
|---|---|---|---|---|---|
| 2026-04-26 20:12 | 21.03367 | -86.86512 | 26 ft | 0 kts | 123° |
| 2026-04-26 20:22 | 21.03366 | -86.86511 | 26 ft | 1 kts | 124° |
| 2026-04-26 20:22 | 21.03337 | -86.86508 | 26 ft | 7 kts | 186° |
| 2026-04-26 20:22 | 21.03293 | -86.86490 | 26 ft | 9 kts | 139° |
| 2026-04-26 20:23 | 21.03237 | -86.86501 | 26 ft | 9 kts | 218° |
| 2026-04-26 20:23 | 21.03166 | -86.86562 | 26 ft | 14 kts | 240° |
| 2026-04-26 20:23 | 21.03224 | -86.86691 | 26 ft | 25 kts | 303° |
| 2026-04-26 20:23 | 21.03332 | -86.86869 | 26 ft | 27 kts | 303° |
| 2026-04-26 20:24 | 21.03434 | -86.87036 | 26 ft | 25 kts | 303° |
| 2026-04-26 20:24 | 21.03527 | -86.87186 | 26 ft | 23 kts | 307° |
| 2026-04-26 20:24 | 21.03617 | -86.87324 | 26 ft | 21 kts | 304° |
| 2026-04-26 20:24 | 21.03695 | -86.87445 | 26 ft | 18 kts | 304° |
| 2026-04-26 20:25 | 21.03789 | -86.87591 | 26 ft | 29 kts | 304° |
| 2026-04-26 20:25 | 21.03875 | -86.87727 | 26 ft | 33 kts | 304° |
| 2026-04-26 20:25 | 21.04036 | -86.87986 | 26 ft | 28 kts | 300° |
| 2026-04-26 20:25 | 21.04137 | -86.88157 | 26 ft | 25 kts | 305° |
| 2026-04-26 20:26 | 21.04231 | -86.88303 | 26 ft | 22 kts | 302° |
| 2026-04-26 20:26 | 21.04310 | -86.88434 | 26 ft | 19 kts | 303° |
| 2026-04-26 20:26 | 21.04391 | -86.88565 | 26 ft | 23 kts | 303° |
| 2026-04-26 20:26 | 21.04494 | -86.88721 | 26 ft | 26 kts | 308° |
| 2026-04-26 20:27 | 21.04539 | -86.88793 | 26 ft | 25 kts | 302° |
| 2026-04-26 20:27 | 21.04631 | -86.88955 | 26 ft | 19 kts | 288° |
| 2026-04-26 20:27 | 21.04604 | -86.89027 | 26 ft | 0 kts | 213° |
| 2026-04-26 20:27 | 21.04586 | -86.89041 | 26 ft | 11 kts | 216° |
| 2026-04-26 20:28 | 21.04506 | -86.89054 | 26 ft | 12 kts | 125° |
| 2026-04-26 20:28 | 21.04482 | -86.89017 | 26 ft | 0 kts | 124° |
| 2026-04-26 20:30 | 21.04426 | -86.88930 | 26 ft | 44 kts | 124° |
| 2026-04-26 20:30 | 21.04135 | -86.88460 | 26 ft | 107 kts | 123° |
| 2026-04-26 20:30 | 21.03632 | -86.87663 | 27 ft | 151 kts | 124° |
| 2026-04-26 20:30 | 21.03047 | -86.86804 | 391 ft | 135 kts | 128° |
| 2026-04-26 20:31 | 21.02315 | -86.85832 | 1285 ft | 259 kts | 130° |
| 2026-04-26 20:31 | 21.01308 | -86.84287 | 1486 ft | 265 kts | 109° |
| 2026-04-26 20:31 | 21.01376 | -86.82610 | 2022 ft | 222 kts | 57° |
| 2026-04-26 20:31 | 21.02494 | -86.81522 | 3386 ft | 240 kts | 23° |
| 2026-04-26 20:32 | 21.04175 | -86.81023 | 3881 ft | 256 kts | 18° |
| 2026-04-26 20:32 | 21.05771 | -86.80287 | 4038 ft | 250 kts | 27° |
| 2026-04-26 20:32 | 21.07250 | -86.79416 | 4151 ft | 244 kts | 30° |
| 2026-04-26 20:32 | 21.08713 | -86.78526 | 4269 ft | 243 kts | 20° |
| 2026-04-26 20:33 | 21.10372 | -86.78337 | 4579 ft | 244 kts | 355° |
| 2026-04-26 20:33 | 21.12070 | -86.78546 | 4841 ft | 248 kts | 351° |
| 2026-04-26 20:33 | 21.13764 | -86.78847 | 4846 ft | 257 kts | 349° |
| 2026-04-26 20:33 | 21.15488 | -86.79188 | 4751 ft | 248 kts | 349° |
| 2026-04-26 20:34 | 21.17141 | -86.79524 | 4741 ft | 244 kts | 349° |
| 2026-04-26 20:34 | 21.18807 | -86.79866 | 4745 ft | 245 kts | 349° |
| 2026-04-26 20:34 | 21.20473 | -86.80192 | 5136 ft | 257 kts | 349° |
| 2026-04-26 20:34 | 21.22238 | -86.80534 | 6450 ft | 271 kts | 349° |
| 2026-04-26 20:35 | 21.24081 | -86.80892 | 7693 ft | 280 kts | 349° |
| 2026-04-26 20:35 | 21.25967 | -86.81258 | 8937 ft | 279 kts | 349° |
| 2026-04-26 20:35 | 21.27844 | -86.81623 | 10181 ft | 278 kts | 349° |
| 2026-04-26 20:35 | 21.30324 | -86.82104 | 11633 ft | 497 kts | 349° |
| 2026-04-26 20:36 | 21.33833 | -86.82787 | 12919 ft | 512 kts | 349° |
| 2026-04-26 20:36 | 21.37339 | -86.83468 | 14180 ft | 503 kts | 349° |
| 2026-04-26 20:36 | 21.40727 | -86.84127 | 15418 ft | 500 kts | 349° |
| 2026-04-26 20:36 | 21.44138 | -86.84791 | 16671 ft | 497 kts | 349° |
| 2026-04-26 20:37 | 21.47538 | -86.85452 | 17926 ft | 495 kts | 349° |
| 2026-04-26 20:37 | 21.50929 | -86.86113 | 19184 ft | 493 kts | 349° |
| 2026-04-26 20:37 | 21.54290 | -86.86768 | 19876 ft | 496 kts | 349° |
| 2026-04-26 20:37 | 21.57689 | -86.87431 | 20177 ft | 488 kts | 349° |
| 2026-04-26 20:38 | 21.61008 | -86.88077 | 21508 ft | 485 kts | 349° |
| 2026-04-26 20:38 | 21.64327 | -86.88725 | 22763 ft | 486 kts | 349° |
| 2026-04-26 20:38 | 21.67589 | -86.89362 | 23996 ft | 483 kts | 349° |
| 2026-04-26 20:38 | 21.70895 | -86.90009 | 25251 ft | 481 kts | 349° |
| 2026-04-26 20:39 | 21.74319 | -86.90677 | 26581 ft | 553 kts | 349° |
| 2026-04-26 20:39 | 21.76897 | -86.91181 | 27394 ft | 574 kts | 349° |
| 2026-04-26 20:39 | 21.82109 | -86.92023 | 29077 ft | 563 kts | 354° |
| 2026-04-26 20:39 | 21.85969 | -86.92407 | 30319 ft | 559 kts | 355° |
| 2026-04-26 20:40 | 21.89832 | -86.92757 | 31572 ft | 555 kts | 355° |
| 2026-04-26 20:40 | 21.93695 | -86.93098 | 32831 ft | 552 kts | 355° |
| 2026-04-26 20:40 | 21.97514 | -86.93433 | 34082 ft | 549 kts | 355° |
| 2026-04-26 20:40 | 22.01349 | -86.93770 | 35346 ft | 546 kts | 355° |
| 2026-04-26 20:41 | 22.05145 | -86.94102 | 36604 ft | 543 kts | 355° |
| 2026-04-26 20:41 | 22.08876 | -86.94429 | 37842 ft | 546 kts | 355° |
| 2026-04-26 20:41 | 22.12673 | -86.94762 | 39086 ft | 556 kts | 355° |
| 2026-04-26 20:41 | 22.16547 | -86.95102 | 39847 ft | 563 kts | 355° |
| 2026-04-26 20:42 | 22.20445 | -86.95444 | 39971 ft | 561 kts | 355° |
| 2026-04-26 20:42 | 22.28227 | -86.96127 | 39998 ft | 556 kts | 355° |
| 2026-04-26 20:43 | 22.36009 | -86.96812 | 40000 ft | 556 kts | 355° |
| 2026-04-26 20:43 | 22.43668 | -86.97486 | 40000 ft | 556 kts | 355° |
| 2026-04-26 20:44 | 22.51398 | -86.98167 | 40000 ft | 556 kts | 355° |
| 2026-04-26 20:44 | 22.59118 | -86.98849 | 40000 ft | 556 kts | 355° |
| 2026-04-26 20:45 | 22.66836 | -86.99531 | 40000 ft | 556 kts | 355° |
| 2026-04-26 20:45 | 22.74550 | -87.00213 | 40000 ft | 556 kts | 355° |
| 2026-04-26 20:46 | 22.82324 | -87.00901 | 40000 ft | 556 kts | 355° |
| 2026-04-26 20:46 | 22.90064 | -87.01588 | 40000 ft | 556 kts | 355° |
| 2026-04-26 20:47 | 22.97806 | -87.02274 | 40000 ft | 556 kts | 355° |
| 2026-04-26 20:47 | 23.05555 | -87.02963 | 40000 ft | 556 kts | 355° |
| 2026-04-26 20:48 | 23.13271 | -87.03649 | 40000 ft | 556 kts | 355° |
| 2026-04-26 20:48 | 23.20989 | -87.04336 | 40000 ft | 556 kts | 355° |
| 2026-04-26 20:49 | 23.28709 | -87.05025 | 40000 ft | 556 kts | 355° |
| 2026-04-26 20:49 | 23.36471 | -87.05718 | 40000 ft | 556 kts | 355° |
| 2026-04-26 20:50 | 23.44287 | -87.06416 | 40000 ft | 556 kts | 355° |
| 2026-04-26 20:50 | 23.52014 | -87.07107 | 40000 ft | 556 kts | 355° |
| 2026-04-26 20:51 | 23.59782 | -87.07803 | 40000 ft | 556 kts | 355° |
| 2026-04-26 20:51 | 23.67487 | -87.08495 | 40000 ft | 556 kts | 355° |
| 2026-04-26 20:52 | 23.75242 | -87.09190 | 40000 ft | 556 kts | 355° |
| 2026-04-26 20:52 | 23.83033 | -87.09892 | 40000 ft | 556 kts | 355° |
| 2026-04-26 20:53 | 23.90781 | -87.10589 | 40000 ft | 556 kts | 355° |
| 2026-04-26 20:53 | 23.98528 | -87.11287 | 40000 ft | 556 kts | 355° |
| 2026-04-26 20:54 | 24.06274 | -87.11986 | 40000 ft | 556 kts | 355° |
| 2026-04-26 20:54 | 24.13980 | -87.12682 | 40000 ft | 556 kts | 355° |
| 2026-04-26 20:55 | 24.21713 | -87.13381 | 40000 ft | 578 kts | 355° |
| 2026-04-26 20:55 | 24.26111 | -87.13554 | 40046 ft | 658 kts | 1° |
| 2026-04-26 20:55 | 24.30627 | -87.12901 | 40038 ft | 652 kts | 15° |
| 2026-04-26 20:55 | 24.34921 | -87.11002 | 40026 ft | 677 kts | 30° |
| 2026-04-26 20:56 | 24.38783 | -87.08006 | 40045 ft | 678 kts | 37° |
| 2026-04-26 20:56 | 24.46797 | -87.02411 | 40003 ft | 690 kts | 31° |
| 2026-04-26 20:57 | 24.55039 | -86.97039 | 40000 ft | 688 kts | 31° |
| 2026-04-26 20:57 | 24.63341 | -86.91634 | 40000 ft | 688 kts | 31° |
| 2026-04-26 20:58 | 24.71622 | -86.86234 | 40000 ft | 688 kts | 31° |
| 2026-04-26 20:58 | 24.79873 | -86.80845 | 40000 ft | 688 kts | 31° |
| 2026-04-26 20:59 | 24.88086 | -86.75472 | 40000 ft | 688 kts | 31° |
| 2026-04-26 20:59 | 24.96336 | -86.70067 | 40000 ft | 688 kts | 31° |
| 2026-04-26 21:00 | 25.04601 | -86.64643 | 40000 ft | 688 kts | 31° |
| 2026-04-26 21:00 | 25.12857 | -86.59217 | 40000 ft | 688 kts | 31° |
| 2026-04-26 21:01 | 25.21113 | -86.53783 | 40000 ft | 688 kts | 31° |
| 2026-04-26 21:01 | 25.29342 | -86.48357 | 40000 ft | 688 kts | 31° |
| 2026-04-26 21:02 | 25.37633 | -86.42882 | 40000 ft | 688 kts | 31° |
| 2026-04-26 21:02 | 25.45817 | -86.37468 | 40000 ft | 688 kts | 31° |
| 2026-04-26 21:03 | 25.54155 | -86.31943 | 40000 ft | 688 kts | 31° |
| 2026-04-26 21:03 | 25.62393 | -86.26477 | 40000 ft | 688 kts | 31° |
| 2026-04-26 21:04 | 25.70649 | -86.20988 | 40000 ft | 688 kts | 31° |
| 2026-04-26 21:04 | 25.78722 | -86.15614 | 40008 ft | 629 kts | 31° |
| 2026-04-26 21:04 | 25.82301 | -86.13229 | 39979 ft | 564 kts | 31° |
| 2026-04-26 21:05 | 25.85549 | -86.11062 | 39987 ft | 523 kts | 31° |
| 2026-04-26 21:05 | 25.91922 | -86.06807 | 40002 ft | 542 kts | 31° |
| 2026-04-26 21:06 | 25.98444 | -86.02447 | 40000 ft | 546 kts | 31° |
| 2026-04-26 21:06 | 26.04890 | -85.98038 | 40003 ft | 544 kts | 36° |
| 2026-04-26 21:07 | 26.11078 | -85.93039 | 40000 ft | 545 kts | 36° |
| 2026-04-26 21:07 | 26.17229 | -85.88016 | 40000 ft | 545 kts | 36° |
| 2026-04-26 21:08 | 26.23360 | -85.82997 | 40000 ft | 545 kts | 36° |
| 2026-04-26 21:08 | 26.29581 | -85.77897 | 40000 ft | 545 kts | 36° |
| 2026-04-26 21:09 | 26.35690 | -85.72883 | 40000 ft | 545 kts | 36° |
| 2026-04-26 21:09 | 26.41826 | -85.67839 | 40000 ft | 545 kts | 36° |
| 2026-04-26 21:10 | 26.47941 | -85.62805 | 40000 ft | 545 kts | 36° |
| 2026-04-26 21:10 | 26.54073 | -85.57752 | 40000 ft | 545 kts | 36° |
| 2026-04-26 21:11 | 26.60160 | -85.52728 | 40000 ft | 545 kts | 36° |
| 2026-04-26 21:11 | 26.66292 | -85.47660 | 39721 ft | 548 kts | 36° |
| 2026-04-26 21:11 | 26.69383 | -85.45103 | 39346 ft | 546 kts | 36° |
| 2026-04-26 21:12 | 26.72415 | -85.42593 | 38974 ft | 545 kts | 36° |
| 2026-04-26 21:12 | 26.75462 | -85.40069 | 38600 ft | 545 kts | 36° |
| 2026-04-26 21:12 | 26.78478 | -85.37568 | 38230 ft | 544 kts | 36° |
| 2026-04-26 21:12 | 26.81493 | -85.35067 | 37859 ft | 543 kts | 36° |
| 2026-04-26 21:13 | 26.84505 | -85.32568 | 37481 ft | 530 kts | 37° |
| 2026-04-26 21:13 | 26.87445 | -85.30125 | 37105 ft | 522 kts | 37° |
| 2026-04-26 21:13 | 26.90345 | -85.27714 | 36731 ft | 518 kts | 37° |
| 2026-04-26 21:13 | 26.93236 | -85.25310 | 36356 ft | 515 kts | 37° |
| 2026-04-26 21:14 | 26.96141 | -85.22891 | 35974 ft | 511 kts | 37° |
| 2026-04-26 21:14 | 26.98966 | -85.20539 | 35600 ft | 508 kts | 37° |
| 2026-04-26 21:14 | 27.01818 | -85.18162 | 35218 ft | 505 kts | 37° |
| 2026-04-26 21:14 | 27.04619 | -85.15826 | 34840 ft | 502 kts | 37° |
| 2026-04-26 21:15 | 27.07427 | -85.13483 | 34459 ft | 499 kts | 37° |
| 2026-04-26 21:15 | 27.10204 | -85.11164 | 34080 ft | 496 kts | 37° |
| 2026-04-26 21:15 | 27.12947 | -85.08872 | 33814 ft | 492 kts | 37° |
| 2026-04-26 21:15 | 27.15705 | -85.06567 | 33561 ft | 491 kts | 37° |
| 2026-04-26 21:16 | 27.18442 | -85.04276 | 33310 ft | 490 kts | 37° |
| 2026-04-26 21:16 | 27.21157 | -85.02003 | 33060 ft | 488 kts | 37° |
| 2026-04-26 21:16 | 27.23903 | -84.99705 | 32805 ft | 486 kts | 37° |
| 2026-04-26 21:16 | 27.26663 | -84.97391 | 32548 ft | 484 kts | 37° |
| 2026-04-26 21:17 | 27.29386 | -84.95107 | 32293 ft | 482 kts | 37° |
| 2026-04-26 21:17 | 27.32117 | -84.92815 | 32036 ft | 480 kts | 37° |
| 2026-04-26 21:17 | 27.34821 | -84.90545 | 31782 ft | 479 kts | 37° |
| 2026-04-26 21:17 | 27.37511 | -84.88284 | 31527 ft | 477 kts | 37° |
| 2026-04-26 21:18 | 27.40141 | -84.86073 | 31277 ft | 475 kts | 37° |
| 2026-04-26 21:18 | 27.42812 | -84.83826 | 31022 ft | 473 kts | 37° |
| 2026-04-26 21:18 | 27.45432 | -84.81621 | 30771 ft | 471 kts | 37° |
| 2026-04-26 21:18 | 27.48033 | -84.79287 | 30514 ft | 469 kts | 46° |
| 2026-04-26 21:19 | 27.49893 | -84.76313 | 30332 ft | 467 kts | 61° |
| 2026-04-26 21:19 | 27.51394 | -84.73083 | 30089 ft | 467 kts | 63° |
| 2026-04-26 21:19 | 27.52832 | -84.69786 | 29836 ft | 465 kts | 64° |
| 2026-04-26 21:19 | 27.54232 | -84.66496 | 29583 ft | 463 kts | 64° |
| 2026-04-26 21:20 | 27.55611 | -84.63224 | 29331 ft | 461 kts | 64° |
| 2026-04-26 21:20 | 27.56987 | -84.59950 | 29078 ft | 459 kts | 64° |
| 2026-04-26 21:20 | 27.58352 | -84.56695 | 28826 ft | 457 kts | 64° |
| 2026-04-26 21:20 | 27.59711 | -84.53449 | 28574 ft | 456 kts | 64° |
| 2026-04-26 21:21 | 27.60929 | -84.50539 | 28347 ft | 454 kts | 64° |
| 2026-04-26 21:21 | 27.62334 | -84.47179 | 28084 ft | 452 kts | 64° |
| 2026-04-26 21:21 | 27.63686 | -84.43943 | 27830 ft | 450 kts | 64° |
| 2026-04-26 21:21 | 27.65028 | -84.40728 | 27067 ft | 456 kts | 64° |
| 2026-04-26 21:22 | 27.66350 | -84.37560 | 26735 ft | 441 kts | 64° |
| 2026-04-26 21:22 | 27.67597 | -84.34566 | 26293 ft | 439 kts | 65° |
| 2026-04-26 21:22 | 27.68908 | -84.31419 | 25786 ft | 437 kts | 65° |
| 2026-04-26 21:23 | 27.71503 | -84.25182 | 24356 ft | 430 kts | 65° |
| 2026-04-26 21:23 | 27.72786 | -84.22095 | 23584 ft | 423 kts | 65° |
| 2026-04-26 21:23 | 27.74036 | -84.19084 | 22822 ft | 417 kts | 65° |
| 2026-04-26 21:23 | 27.75273 | -84.16101 | 22058 ft | 413 kts | 65° |
| 2026-04-26 21:24 | 27.76488 | -84.13171 | 21331 ft | 407 kts | 65° |
| 2026-04-26 21:24 | 27.77675 | -84.10307 | 20979 ft | 402 kts | 65° |
| 2026-04-26 21:24 | 27.78872 | -84.07414 | 20602 ft | 403 kts | 65° |
| 2026-04-26 21:24 | 27.80067 | -84.04527 | 20225 ft | 402 kts | 65° |
| 2026-04-26 21:25 | 27.81256 | -84.01650 | 19845 ft | 400 kts | 65° |
| 2026-04-26 21:25 | 27.82431 | -83.98805 | 19467 ft | 397 kts | 65° |
| 2026-04-26 21:25 | 27.83587 | -83.96005 | 19093 ft | 395 kts | 65° |
| 2026-04-26 21:25 | 27.84760 | -83.93163 | 18711 ft | 392 kts | 65° |
| 2026-04-26 21:26 | 27.85415 | -83.90227 | 18377 ft | 390 kts | 83° |
| 2026-04-26 21:26 | 27.85734 | -83.87180 | 18003 ft | 389 kts | 84° |
| 2026-04-26 21:26 | 27.86015 | -83.84135 | 17625 ft | 387 kts | 84° |
| 2026-04-26 21:26 | 27.86278 | -83.81070 | 17165 ft | 386 kts | 84° |
| 2026-04-26 21:27 | 27.86534 | -83.78007 | 16520 ft | 382 kts | 84° |
| 2026-04-26 21:27 | 27.86774 | -83.75069 | 15897 ft | 377 kts | 84° |
| 2026-04-26 21:27 | 27.87013 | -83.72144 | 15412 ft | 370 kts | 84° |
| 2026-04-26 21:27 | 27.87250 | -83.69214 | 14906 ft | 371 kts | 84° |
| 2026-04-26 21:28 | 27.87480 | -83.66360 | 14412 ft | 369 kts | 84° |
| 2026-04-26 21:28 | 27.87714 | -83.63462 | 13906 ft | 366 kts | 84° |
| 2026-04-26 21:28 | 27.87944 | -83.60588 | 13400 ft | 363 kts | 84° |
| 2026-04-26 21:28 | 27.88170 | -83.57778 | 12933 ft | 359 kts | 84° |
| 2026-04-26 21:29 | 27.88394 | -83.54972 | 12561 ft | 357 kts | 84° |
| 2026-04-26 21:29 | 27.88614 | -83.52197 | 12189 ft | 356 kts | 84° |
| 2026-04-26 21:29 | 27.88837 | -83.49398 | 11811 ft | 355 kts | 84° |
| 2026-04-26 21:29 | 27.89057 | -83.46616 | 11434 ft | 353 kts | 84° |
| 2026-04-26 21:30 | 27.89273 | -83.43889 | 11061 ft | 351 kts | 84° |
| 2026-04-26 21:30 | 27.89490 | -83.41132 | 10683 ft | 349 kts | 84° |
| 2026-04-26 21:30 | 27.89705 | -83.38399 | 10306 ft | 347 kts | 84° |
| 2026-04-26 21:30 | 27.89918 | -83.35684 | 10047 ft | 343 kts | 84° |
| 2026-04-26 21:31 | 27.90126 | -83.33028 | 10008 ft | 343 kts | 85° |
| 2026-04-26 21:31 | 27.90337 | -83.30329 | 10002 ft | 345 kts | 85° |
| 2026-04-26 21:31 | 27.90549 | -83.27608 | 10000 ft | 345 kts | 85° |
| 2026-04-26 21:31 | 27.90758 | -83.24918 | 10000 ft | 345 kts | 85° |
| 2026-04-26 21:32 | 27.90966 | -83.22233 | 10000 ft | 345 kts | 85° |
| 2026-04-26 21:32 | 27.91163 | -83.19674 | 10000 ft | 345 kts | 85° |
| 2026-04-26 21:32 | 27.91370 | -83.17004 | 10000 ft | 345 kts | 85° |
| 2026-04-26 21:32 | 27.91579 | -83.14428 | 10000 ft | 345 kts | 85° |
| 2026-04-26 21:33 | 27.91767 | -83.12113 | 10000 ft | 345 kts | 85° |
| 2026-04-26 21:33 | 27.92176 | -83.07059 | 10000 ft | 345 kts | 85° |
| 2026-04-26 21:33 | 27.92381 | -83.04524 | 9974 ft | 298 kts | 85° |
| 2026-04-26 21:34 | 27.92562 | -83.02317 | 9781 ft | 275 kts | 84° |
| 2026-04-26 21:34 | 27.92739 | -83.00201 | 9416 ft | 280 kts | 85° |
| 2026-04-26 21:34 | 27.92918 | -82.97942 | 9044 ft | 286 kts | 85° |
| 2026-04-26 21:34 | 27.93098 | -82.95670 | 8664 ft | 285 kts | 85° |
| 2026-04-26 21:35 | 27.93276 | -82.93436 | 8319 ft | 281 kts | 85° |
| 2026-04-26 21:35 | 27.93450 | -82.91258 | 8072 ft | 279 kts | 85° |
| 2026-04-26 21:35 | 27.93627 | -82.89041 | 7821 ft | 280 kts | 85° |
| 2026-04-26 21:35 | 27.93800 | -82.86894 | 7576 ft | 279 kts | 85° |
| 2026-04-26 21:36 | 27.93975 | -82.84708 | 7325 ft | 278 kts | 84° |
| 2026-04-26 21:36 | 27.94150 | -82.82548 | 7080 ft | 277 kts | 84° |
| 2026-04-26 21:36 | 27.94319 | -82.80449 | 7012 ft | 273 kts | 84° |
| 2026-04-26 21:36 | 27.94489 | -82.78353 | 7003 ft | 275 kts | 84° |
| 2026-04-26 21:37 | 27.94664 | -82.76202 | 7001 ft | 276 kts | 84° |
| 2026-04-26 21:37 | 27.94845 | -82.73991 | 7000 ft | 277 kts | 84° |
| 2026-04-26 21:37 | 27.95023 | -82.71813 | 7000 ft | 276 kts | 84° |
| 2026-04-26 21:37 | 27.95202 | -82.69627 | 7000 ft | 276 kts | 84° |
| 2026-04-26 21:38 | 27.95384 | -82.67414 | 7000 ft | 276 kts | 84° |
| 2026-04-26 21:38 | 27.95564 | -82.65229 | 7000 ft | 276 kts | 84° |
| 2026-04-26 21:38 | 27.95743 | -82.63055 | 7000 ft | 276 kts | 84° |
| 2026-04-26 21:38 | 27.95920 | -82.60922 | 7000 ft | 276 kts | 84° |
| 2026-04-26 21:39 | 27.96099 | -82.58763 | 7000 ft | 276 kts | 84° |
| 2026-04-26 21:39 | 27.96282 | -82.56573 | 7000 ft | 276 kts | 84° |
| 2026-04-26 21:39 | 27.96466 | -82.54359 | 7000 ft | 276 kts | 84° |
| 2026-04-26 21:39 | 27.96645 | -82.52219 | 7000 ft | 276 kts | 84° |
| 2026-04-26 21:40 | 27.96831 | -82.50005 | 7000 ft | 276 kts | 84° |
| 2026-04-26 21:40 | 27.97015 | -82.47824 | 7000 ft | 276 kts | 84° |
| 2026-04-26 21:40 | 27.97199 | -82.45646 | 7000 ft | 276 kts | 84° |
| 2026-04-26 21:40 | 27.97387 | -82.43420 | 7000 ft | 276 kts | 84° |
| 2026-04-26 21:41 | 27.97551 | -82.41484 | 6975 ft | 278 kts | 84° |
| 2026-04-26 21:41 | 27.97743 | -82.39226 | 6034 ft | 274 kts | 84° |
| 2026-04-26 21:41 | 27.97922 | -82.37122 | 5141 ft | 264 kts | 84° |
| 2026-04-26 21:41 | 27.98098 | -82.35060 | 4239 ft | 256 kts | 84° |
| 2026-04-26 21:42 | 27.98265 | -82.33107 | 3365 ft | 250 kts | 84° |
| 2026-04-26 21:42 | 27.98429 | -82.31193 | 3039 ft | 229 kts | 84° |
| 2026-04-26 21:42 | 27.98585 | -82.29381 | 3012 ft | 236 kts | 84° |
| 2026-04-26 21:42 | 27.98752 | -82.27442 | 3008 ft | 246 kts | 84° |
| 2026-04-26 21:43 | 27.98921 | -82.25494 | 3001 ft | 246 kts | 84° |
| 2026-04-26 21:43 | 27.99091 | -82.23530 | 2999 ft | 245 kts | 84° |
| 2026-04-26 21:43 | 27.99260 | -82.21581 | 2999 ft | 245 kts | 84° |
| 2026-04-26 21:43 | 27.99485 | -82.19728 | 2995 ft | 245 kts | 69° |
| 2026-04-26 21:44 | 28.00512 | -82.18227 | 3028 ft | 245 kts | 31° |
| 2026-04-26 21:44 | 28.02014 | -82.17355 | 3013 ft | 247 kts | 26° |
| 2026-04-26 21:44 | 28.03249 | -82.16150 | 3014 ft | 231 kts | 43° |
| 2026-04-26 21:44 | 28.04593 | -82.15464 | 3010 ft | 209 kts | 2° |
| 2026-04-26 21:45 | 28.06085 | -82.15457 | 3010 ft | 215 kts | 359° |
| 2026-04-26 21:45 | 28.07579 | -82.15345 | 3010 ft | 217 kts | 15° |
| 2026-04-26 21:45 | 28.08982 | -82.14899 | 2994 ft | 206 kts | 16° |
| 2026-04-26 21:45 | 28.10233 | -82.14493 | 3009 ft | 170 kts | 16° |
| 2026-04-26 21:46 | 28.11261 | -82.14159 | 2982 ft | 135 kts | 16° |
| 2026-04-26 21:46 | 28.12124 | -82.13839 | 2983 ft | 131 kts | 28° |
| 2026-04-26 21:46 | 28.12944 | -82.13319 | 3031 ft | 148 kts | 30° |
| 2026-04-26 21:46 | 28.13865 | -82.12719 | 3009 ft | 150 kts | 30° |
| 2026-04-26 21:47 | 28.14753 | -82.12141 | 2875 ft | 153 kts | 30° |
| 2026-04-26 21:47 | 28.15651 | -82.11556 | 2625 ft | 150 kts | 30° |
| 2026-04-26 21:47 | 28.16425 | -82.10784 | 2364 ft | 145 kts | 46° |
| 2026-04-26 21:47 | 28.17105 | -82.09991 | 2292 ft | 138 kts | 46° |
| 2026-04-26 21:48 | 28.17800 | -82.09179 | 2299 ft | 143 kts | 46° |
| 2026-04-26 21:48 | 28.18510 | -82.08350 | 2296 ft | 146 kts | 46° |
| 2026-04-26 21:48 | 28.19213 | -82.07503 | 2289 ft | 146 kts | 47° |
| 2026-04-26 21:48 | 28.19899 | -82.06675 | 2288 ft | 145 kts | 47° |
| 2026-04-26 21:49 | 28.20564 | -82.05840 | 2254 ft | 146 kts | 58° |
| 2026-04-26 21:49 | 28.20961 | -82.04778 | 2259 ft | 145 kts | 70° |
| 2026-04-26 21:49 | 28.21311 | -82.03687 | 2254 ft | 146 kts | 70° |
| 2026-04-26 21:49 | 28.21656 | -82.02606 | 2252 ft | 145 kts | 70° |
| 2026-04-26 21:50 | 28.21991 | -82.01560 | 2252 ft | 145 kts | 70° |
| 2026-04-26 21:50 | 28.22340 | -82.00468 | 2253 ft | 145 kts | 70° |
| 2026-04-26 21:50 | 28.22671 | -81.99434 | 2253 ft | 145 kts | 70° |
| 2026-04-26 21:50 | 28.23017 | -81.98355 | 2253 ft | 145 kts | 70° |
| 2026-04-26 21:51 | 28.23364 | -81.97273 | 2253 ft | 145 kts | 70° |
| 2026-04-26 21:51 | 28.23707 | -81.96201 | 2253 ft | 145 kts | 70° |
| 2026-04-26 21:51 | 28.24047 | -81.95140 | 2253 ft | 145 kts | 70° |
| 2026-04-26 21:51 | 28.24386 | -81.94084 | 2253 ft | 145 kts | 70° |
| 2026-04-26 21:52 | 28.24458 | -81.92990 | 2250 ft | 144 kts | 108° |
| 2026-04-26 21:52 | 28.24074 | -81.91913 | 2261 ft | 147 kts | 113° |
| 2026-04-26 21:52 | 28.23663 | -81.90825 | 2253 ft | 146 kts | 113° |
| 2026-04-26 21:52 | 28.23125 | -81.89867 | 2247 ft | 144 kts | 139° |
| 2026-04-26 21:53 | 28.22341 | -81.89148 | 2275 ft | 139 kts | 141° |
| 2026-04-26 21:53 | 28.21578 | -81.88435 | 2259 ft | 143 kts | 136° |
| 2026-04-26 21:53 | 28.20894 | -81.87589 | 2258 ft | 145 kts | 131° |
| 2026-04-26 21:53 | 28.20237 | -81.86749 | 2254 ft | 145 kts | 131° |
| 2026-04-26 21:54 | 28.19560 | -81.85882 | 2252 ft | 145 kts | 131° |
| 2026-04-26 21:54 | 28.18877 | -81.85006 | 2253 ft | 145 kts | 131° |
| 2026-04-26 21:54 | 28.18213 | -81.84157 | 2253 ft | 145 kts | 131° |
| 2026-04-26 21:54 | 28.17528 | -81.83329 | 2253 ft | 145 kts | 133° |
| 2026-04-26 21:55 | 28.16870 | -81.82460 | 2253 ft | 145 kts | 129° |
| 2026-04-26 21:55 | 28.16104 | -81.81761 | 2243 ft | 144 kts | 162° |
| 2026-04-26 21:55 | 28.15152 | -81.81789 | 2253 ft | 145 kts | 201° |
| 2026-04-26 21:55 | 28.14228 | -81.82252 | 2254 ft | 146 kts | 210° |
| 2026-04-26 21:56 | 28.13381 | -81.82904 | 2254 ft | 145 kts | 215° |
| 2026-04-26 21:56 | 28.12540 | -81.83571 | 2252 ft | 145 kts | 215° |
| 2026-04-26 21:56 | 28.11832 | -81.84318 | 2249 ft | 144 kts | 233° |
| 2026-04-26 21:56 | 28.11285 | -81.85271 | 2255 ft | 145 kts | 240° |
| 2026-04-26 21:57 | 28.10849 | -81.86286 | 2254 ft | 145 kts | 246° |
| 2026-04-26 21:57 | 28.10410 | -81.87336 | 2253 ft | 145 kts | 244° |
| 2026-04-26 21:57 | 28.09971 | -81.88358 | 2253 ft | 145 kts | 244° |
| 2026-04-26 21:57 | 28.09554 | -81.89356 | 2252 ft | 145 kts | 246° |
| 2026-04-26 21:58 | 28.09143 | -81.90403 | 2253 ft | 145 kts | 246° |
| 2026-04-26 21:58 | 28.08728 | -81.91460 | 2253 ft | 145 kts | 246° |
| 2026-04-26 21:58 | 28.08306 | -81.92459 | 2243 ft | 143 kts | 236° |
| 2026-04-26 21:58 | 28.07680 | -81.93339 | 2254 ft | 145 kts | 224° |
| 2026-04-26 21:59 | 28.06817 | -81.93807 | 2254 ft | 144 kts | 190° |
| 2026-04-26 21:59 | 28.05832 | -81.94052 | 2254 ft | 145 kts | 198° |
| 2026-04-26 21:59 | 28.05013 | -81.94428 | 2240 ft | 145 kts | 216° |
| 2026-04-26 21:59 | 28.04250 | -81.95262 | 2249 ft | 144 kts | 209° |
| 2026-04-26 22:00 | 28.03308 | -81.95506 | 2121 ft | 149 kts | 182° |
| 2026-04-26 22:00 | 28.02432 | -81.95606 | 1916 ft | 120 kts | 191° |
| 2026-04-26 22:00 | 28.01640 | -81.95839 | 1750 ft | 137 kts | 198° |
| 2026-04-26 22:00 | 28.00802 | -81.96173 | 1648 ft | 147 kts | 203° |
| 2026-04-26 22:01 | 27.99973 | -81.96684 | 1468 ft | 147 kts | 216° |
| 2026-04-26 22:01 | 27.99347 | -81.97500 | 1121 ft | 147 kts | 236° |
| 2026-04-26 22:01 | 27.99055 | -81.98328 | 813 ft | 147 kts | 260° |
| 2026-04-26 22:01 | 27.98964 | -81.99300 | 638 ft | 134 kts | 264° |
| 2026-04-26 22:02 | 27.98948 | -82.00275 | 924 ft | 131 kts | 271° |
| 2026-04-26 22:02 | 27.98981 | -82.01308 | 1544 ft | 139 kts | 271° |
| 2026-04-26 22:02 | 27.99117 | -82.02396 | 1701 ft | 157 kts | 319° |
| 2026-04-26 22:02 | 28.00129 | -82.02731 | 1430 ft | 154 kts | 355° |
| 2026-04-26 22:03 | 28.01057 | -82.02792 | 1439 ft | 122 kts | 360° |
| 2026-04-26 22:03 | 28.01921 | -82.02752 | 1616 ft | 131 kts | 4° |
| 2026-04-26 22:03 | 28.02894 | -82.02618 | 1642 ft | 150 kts | 26° |
| 2026-04-26 22:03 | 28.03523 | -82.01939 | 1844 ft | 136 kts | 57° |
| 2026-04-26 22:04 | 28.04042 | -82.01025 | 2005 ft | 148 kts | 46° |
| 2026-04-26 22:04 | 28.04688 | -82.00172 | 2178 ft | 153 kts | 64° |
| 2026-04-26 22:04 | 28.04485 | -81.99194 | 1484 ft | 163 kts | 135° |
| 2026-04-26 22:04 | 28.03846 | -81.98732 | 1426 ft | 133 kts | 164° |
| 2026-04-26 22:05 | 28.03107 | -81.98609 | 1447 ft | 126 kts | 176° |
| 2026-04-26 22:05 | 28.02221 | -81.98544 | 1465 ft | 136 kts | 176° |
| 2026-04-26 22:05 | 28.01264 | -81.98487 | 1313 ft | 146 kts | 184° |
| 2026-04-26 22:05 | 28.00307 | -81.98624 | 1195 ft | 142 kts | 194° |
| 2026-04-26 22:06 | 27.99516 | -81.99109 | 879 ft | 133 kts | 226° |
| 2026-04-26 22:06 | 27.99069 | -81.99927 | 401 ft | 120 kts | 251° |
| 2026-04-26 22:06 | 27.98941 | -82.00749 | 155 ft | 116 kts | 267° |
| 2026-04-26 22:06 | 27.98926 | -82.01529 | 133 ft | 84 kts | 268° |
| 2026-04-26 22:07 | 27.98939 | -82.01840 | 132 ft | 15 kts | 341° |
| 2026-04-26 22:07 | 27.98988 | -82.01801 | 133 ft | 4 kts | 67° |
| 2026-04-26 22:07 | 27.99004 | -82.01767 | 133 ft | 4 kts | 52° |
| 2026-04-26 22:07 | 27.99010 | -82.01759 | 133 ft | 0 kts | 53° |
| 2026-04-26 22:08 | 27.99013 | -82.01755 | 133 ft | 2 kts | 21° |
| 2026-04-26 22:08 | 27.99021 | -82.01772 | 133 ft | 7 kts | 226° |
| 2026-04-26 22:08 | 27.99015 | -82.01777 | 133 ft | 0 kts | 206° |
| 2026-04-26 22:09 | 27.98991 | -82.01795 | 133 ft | 8 kts | 233° |
| 2026-04-26 22:09 | 27.98921 | -82.01823 | 132 ft | 15 kts | 170° |
| 2026-04-26 22:10 | 27.98866 | -82.01783 | 131 ft | 8 kts | 131° |
| 2026-04-26 22:10 | 27.98815 | -82.01743 | 132 ft | 7 kts | 160° |
| 2026-04-26 22:10 | 27.98772 | -82.01740 | 132 ft | 9 kts | 217° |
| 2026-04-26 22:10 | 27.98745 | -82.01730 | 132 ft | 3 kts | 130° |
| 2026-04-26 22:11 | 27.98733 | -82.01691 | 133 ft | 7 kts | 96° |
| 2026-04-26 22:11 | 27.98730 | -82.01636 | 133 ft | 6 kts | 84° |
| 2026-04-26 22:11 | 27.98735 | -82.01626 | 133 ft | 0 kts | 51° |
| 2026-04-26 22:11 | 27.98736 | -82.01625 | 133 ft | 0 kts | 51° |
| 2026-04-26 22:16 | 27.98736 | -82.01624 | 133 ft | 0 kts | 52° |
| 2026-04-26 22:16 | 27.98737 | -82.01622 | 133 ft | 0 kts | 79° |
| 2026-04-26 22:16 | 27.98737 | -82.01620 | 133 ft | 0 kts | 105° |
| 2026-04-26 22:17 | 27.98731 | -82.01616 | 133 ft | 2 kts | 172° |
| 2026-04-26 22:17 | 27.98710 | -82.01636 | 133 ft | 5 kts | 225° |
| 2026-04-26 22:17 | 27.98671 | -82.01677 | 133 ft | 6 kts | 226° |
| 2026-04-26 22:17 | 27.98647 | -82.01711 | 132 ft | 5 kts | 186° |
| 2026-04-26 22:18 | 27.98634 | -82.01688 | 132 ft | 2 kts | 59° |
| 2026-04-26 22:18 | 27.98639 | -82.01681 | 132 ft | 0 kts | 44° |
| 2026-04-26 22:18 | 27.98640 | -82.01680 | 132 ft | 0 kts | 18° |
| 2026-04-26 22:18 | 27.98641 | -82.01680 | 132 ft | 0 kts | 6° |